Time;durP1;ratioP1;P1;durP2;ratioP2;P2;SDS_P1;SDS_P2;PMS_P1;PMS_P2;Temp;Humidity;BMP_temperature;BMP_pressure;BME280_temperature;BME280_humidity;BME280_pressure;Samples;Min_cycle;Max_cycle;Signal;HPM_P1;HPM_P2
2023/08/06 00:03:00;;;;;;;5.00;2.47;;;;;;;16.77;100.00;99420.72;8290313;28;20038;-59
2023/08/06 00:07:00;;;;;;;6.30;2.20;;;;;;;16.64;100.00;99417.91;8289797;28;20041;-60
2023/08/06 00:11:00;;;;;;;4.40;2.25;;;;;;;16.61;100.00;99412.88;8290516;28;20439;-60
2023/08/06 00:15:01;;;;;;;6.13;2.40;;;;;;;16.60;100.00;99411.22;8289437;28;20450;-59
2023/08/06 00:19:02;;;;;;;5.43;2.30;;;;;;;16.61;100.00;99410.16;8289083;28;20489;-61
2023/08/06 00:23:02;;;;;;;5.28;2.40;;;;;;;16.59;100.00;99409.53;8290838;28;20053;-61
2023/08/06 00:27:03;;;;;;;3.63;1.90;;;;;;;16.58;100.00;99407.84;8289493;28;20033;-61
2023/08/06 00:31:04;;;;;;;2.65;1.40;;;;;;;16.65;100.00;99400.53;8290566;28;20048;-61
2023/08/06 00:35:05;;;;;;;3.05;1.95;;;;;;;16.66;100.00;99404.94;8290409;28;20042;-61
2023/08/06 00:39:06;;;;;;;3.65;1.70;;;;;;;16.69;100.00;99416.28;8289508;28;20161;-60
2023/08/06 00:43:07;;;;;;;2.38;1.30;;;;;;;16.68;100.00;99416.50;8289925;28;20042;-60
2023/08/06 00:47:08;;;;;;;1.33;0.98;;;;;;;16.69;100.00;99416.28;8289701;28;20034;-59
2023/08/06 00:51:10;;;;;;;1.58;1.13;;;;;;;16.69;100.00;99415.44;8286081;28;20033;-60
2023/08/06 00:55:11;;;;;;;2.13;1.00;;;;;;;16.69;100.00;99408.09;8289735;28;20443;-60
2023/08/06 00:59:13;;;;;;;1.52;0.70;;;;;;;16.72;100.00;99409.56;8289258;28;20184;-60
2023/08/06 01:03:13;;;;;;;1.58;0.82;;;;;;;16.79;100.00;99402.22;8292480;28;20052;-60
2023/08/06 01:12:02;;;;;;;3.05;1.05;;;;;;;16.85;100.00;99409.56;8412398;27;20494;-59
2023/08/06 01:16:05;;;;;;;1.23;0.95;;;;;;;16.93;100.00;99395.75;8380144;28;20126;-59
2023/08/06 01:20:06;;;;;;;1.80;0.85;;;;;;;17.00;100.00;99393.84;8384178;27;20417;-63
2023/08/06 01:24:07;;;;;;;1.40;0.90;;;;;;;17.04;100.00;99389.63;8387789;27;20042;-60
2023/08/06 01:28:15;;;;;;;2.30;1.02;;;;;;;17.00;100.00;99393.84;8384714;28;20035;-59
2023/08/06 01:32:17;;;;;;;2.35;1.27;;;;;;;17.06;100.00;99384.81;8380105;28;20445;-60
2023/08/06 01:36:20;;;;;;;3.05;1.10;;;;;;;17.06;100.00;99376.63;8380671;28;20087;-59
2023/08/06 01:40:21;;;;;;;1.63;0.95;;;;;;;17.13;100.00;99386.50;8384574;28;20446;-59
2023/08/06 01:44:21;;;;;;;1.73;1.15;;;;;;;17.13;100.00;99380.19;8384906;27;20194;-59
2023/08/06 01:48:22;;;;;;;3.30;1.13;;;;;;;17.13;100.00;99364.66;8382803;27;20037;-59
2023/08/06 01:52:22;;;;;;;2.53;1.10;;;;;;;17.13;100.00;99363.81;8381435;27;20041;-60
2023/08/06 01:56:23;;;;;;;2.45;1.15;;;;;;;17.13;100.00;99366.53;8383313;27;20128;-60
2023/08/06 02:00:23;;;;;;;4.40;1.10;;;;;;;17.15;100.00;99361.72;8381692;28;20499;-61
2023/08/06 02:04:25;;;;;;;1.30;0.85;;;;;;;17.24;100.00;99365.91;8382303;27;20041;-59
2023/08/06 02:08:26;;;;;;;1.83;1.13;;;;;;;17.19;100.00;99355.63;8383320;28;20111;-59
2023/08/06 02:12:27;;;;;;;2.53;1.10;;;;;;;17.14;100.00;99360.03;8383575;27;20448;-59
2023/08/06 02:16:27;;;;;;;4.43;1.00;;;;;;;17.17;100.00;99356.88;8382700;27;20075;-60
2023/08/06 02:20:28;;;;;;;1.10;0.82;;;;;;;17.17;100.00;99338.59;8373937;27;20082;-59
2023/08/06 02:24:29;;;;;;;2.53;0.90;;;;;;;17.17;100.00;99337.78;8360152;28;20056;-59
2023/08/06 02:28:30;;;;;;;1.73;1.15;;;;;;;17.16;100.00;99347.84;8359347;28;20047;-59
2023/08/06 02:32:32;;;;;;;1.98;1.50;;;;;;;17.09;100.00;99337.97;8357306;28;20042;-59
2023/08/06 02:36:34;;;;;;;3.67;1.23;;;;;;;16.97;100.00;99337.78;8359574;28;20392;-59
2023/08/06 02:40:34;;;;;;;2.13;1.08;;;;;;;17.02;100.00;99339.88;8358939;28;20030;-61
2023/08/06 02:44:35;;;;;;;1.85;0.90;;;;;;;17.00;100.00;99336.50;8360102;28;20029;-60
2023/08/06 02:48:36;;;;;;;2.58;1.05;;;;;;;16.98;100.00;99327.66;8360583;28;20125;-59
2023/08/06 02:52:38;;;;;;;2.47;0.85;;;;;;;16.93;100.00;99332.94;8356383;28;20056;-60
2023/08/06 02:56:44;;;;;;;1.95;0.65;;;;;;;16.85;100.00;99327.69;8359605;28;20071;-58
2023/08/06 03:01:07;;;;;;;1.83;0.80;;;;;;;16.78;100.00;99321.38;8356424;28;20037;-58
2023/08/06 03:05:16;;;;;;;1.85;0.80;;;;;;;16.72;100.00;99316.75;8358415;28;20041;-58
2023/08/06 03:09:20;;;;;;;0.93;0.70;;;;;;;16.74;100.00;99314.66;8358368;28;20491;-58
2023/08/06 03:13:22;;;;;;;2.22;0.90;;;;;;;16.69;100.00;99311.72;8359974;28;20522;-58
2023/08/06 03:17:23;;;;;;;1.85;0.77;;;;;;;16.72;100.00;99301.22;8359434;28;20408;-58
2023/08/06 03:21:23;;;;;;;1.83;1.10;;;;;;;16.75;100.00;99305.44;8357559;28;20554;-59
2023/08/06 03:25:25;;;;;;;4.90;0.93;;;;;;;16.74;100.00;99301.84;8364856;28;20093;-59
2023/08/06 03:29:26;;;;;;;2.55;1.23;;;;;;;16.71;100.00;99294.06;8374081;28;20040;-59
2023/08/06 03:33:28;;;;;;;2.65;1.17;;;;;;;16.69;100.00;99309.84;8355556;28;20036;-58
2023/08/06 03:37:30;;;;;;;5.63;1.25;;;;;;;16.58;100.00;99304.13;8358021;28;20053;-59
2023/08/06 03:41:30;;;;;;;3.47;1.45;;;;;;;16.53;100.00;99302.03;8358749;28;20068;-59
2023/08/06 03:45:31;;;;;;;2.75;1.20;;;;;;;16.46;100.00;99305.81;8359171;28;20064;-58
2023/08/06 03:49:32;;;;;;;5.68;1.40;;;;;;;16.38;100.00;99297.78;8357940;28;20487;-59
2023/08/06 03:53:33;;;;;;;3.47;1.33;;;;;;;16.40;100.00;99301.13;8358951;28;20446;-59
2023/08/06 03:57:34;;;;;;;7.63;1.30;;;;;;;16.41;100.00;99297.38;8358171;28;20029;-58
2023/08/06 04:01:35;;;;;;;3.25;1.30;;;;;;;16.47;100.00;99302.03;8355663;28;20559;-58
2023/08/06 04:05:35;;;;;;;5.45;1.65;;;;;;;16.41;100.00;99297.38;8356992;28;20029;-58
2023/08/06 04:09:52;;;;;;;1.90;1.38;;;;;;;16.44;100.00;99291.53;8359999;28;20514;-58
2023/08/06 04:13:54;;;;;;;4.20;2.00;;;;;;;16.43;100.00;99295.28;8356527;28;20037;-58
2023/08/06 04:17:56;;;;;;;2.47;1.88;;;;;;;16.45;100.00;99304.97;8356082;28;20037;-58
2023/08/06 04:21:57;;;;;;;3.05;1.70;;;;;;;16.50;100.00;99290.72;8340532;28;20478;-58
2023/08/06 04:25:58;;;;;;;4.13;1.88;;;;;;;16.49;100.00;99289.00;8353600;28;20056;-58
2023/08/06 04:30:01;;;;;;;5.95;1.65;;;;;;;16.49;100.00;99289.88;8359895;28;20475;-57
2023/08/06 04:34:02;;;;;;;2.75;1.40;;;;;;;16.51;100.00;99298.69;8338470;28;20412;-57
2023/08/06 04:38:04;;;;;;;4.85;1.73;;;;;;;16.50;100.00;99301.63;8356691;28;20066;-58
2023/08/06 04:42:05;;;;;;;2.92;1.40;;;;;;;16.52;100.00;99299.50;8344717;28;20387;-57
2023/08/06 04:46:06;;;;;;;3.40;1.52;;;;;;;16.54;100.00;99301.00;8344288;28;20060;-58
2023/08/06 04:50:07;;;;;;;4.53;1.60;;;;;;;16.54;100.00;99308.34;8355498;28;20538;-58
2023/08/06 04:54:07;;;;;;;3.15;1.60;;;;;;;16.59;100.00;99312.13;8358744;28;20076;-58
2023/08/06 04:58:09;;;;;;;5.57;1.80;;;;;;;16.61;100.00;99299.13;8355746;28;20552;-58
2023/08/06 05:02:10;;;;;;;4.07;2.38;;;;;;;16.61;100.00;99310.03;8353564;28;20041;-57
2023/08/06 05:06:10;;;;;;;3.55;2.40;;;;;;;16.54;100.00;99303.72;8352576;28;20033;-58
2023/08/06 05:10:11;;;;;;;4.03;2.05;;;;;;;16.60;100.00;99297.44;8354613;28;20040;-61
2023/08/06 05:14:11;;;;;;;5.38;2.50;;;;;;;16.62;100.00;99306.25;8356393;28;20477;-57
2023/08/06 05:18:12;;;;;;;5.72;2.10;;;;;;;16.59;100.00;99309.38;8355224;28;20041;-57
2023/08/06 05:22:13;;;;;;;5.03;2.13;;;;;;;16.60;100.00;99315.69;8354773;28;20037;-57
2023/08/06 05:26:15;;;;;;;5.20;2.58;;;;;;;16.59;100.00;99311.28;8355929;28;20064;-57
2023/08/06 05:30:16;;;;;;;4.55;2.25;;;;;;;16.53;100.00;99314.84;8353073;28;20519;-59
2023/08/06 05:34:16;;;;;;;5.10;2.08;;;;;;;16.60;100.00;99323.88;8356433;28;20498;-58
2023/08/06 05:38:17;;;;;;;3.58;2.20;;;;;;;16.53;100.00;99312.94;8352598;28;20037;-58
2023/08/06 05:42:17;;;;;;;4.18;1.90;;;;;;;16.49;100.00;99332.66;8355430;28;20039;-58
2023/08/06 05:46:18;;;;;;;2.40;1.60;;;;;;;16.47;100.00;99323.88;8355593;28;20120;-58
2023/08/06 05:50:18;;;;;;;2.40;1.67;;;;;;;16.44;100.00;99340.66;8352598;28;20490;-58
2023/08/06 05:54:19;;;;;;;3.38;2.40;;;;;;;16.49;100.00;99338.13;8354677;28;20037;-61
2023/08/06 05:58:20;;;;;;;3.22;1.58;;;;;;;16.60;100.00;99334.78;8361603;28;20037;-58
2023/08/06 06:02:20;;;;;;;3.15;1.50;;;;;;;16.48;100.00;99339.19;8355700;28;20041;-58
2023/08/06 06:06:21;;;;;;;3.40;1.30;;;;;;;16.64;100.00;99341.50;8360355;28;20037;-59
2023/08/06 06:10:21;;;;;;;1.85;1.50;;;;;;;16.69;100.00;99344.47;8357546;28;20042;-58
2023/08/06 06:14:22;;;;;;;3.85;1.33;;;;;;;16.68;100.00;99342.78;8374699;28;20119;-58
2023/08/06 06:18:22;;;;;;;2.92;1.33;;;;;;;16.72;100.00;99344.06;8377719;28;20032;-58
2023/08/06 06:22:23;;;;;;;4.25;1.33;;;;;;;16.75;100.00;99352.69;8375640;28;20032;-58
2023/08/06 06:26:23;;;;;;;2.28;1.48;;;;;;;16.85;100.00;99363.16;8356114;28;20116;-58
2023/08/06 06:30:24;;;;;;;2.03;1.48;;;;;;;16.92;100.00;99361.28;8357089;28;20034;-58
2023/08/06 06:34:24;;;;;;;4.38;1.48;;;;;;;17.06;100.00;99368.44;8364374;28;20127;-58
2023/08/06 06:38:25;;;;;;;4.28;1.90;;;;;;;17.15;100.00;99367.16;8359733;28;20105;-58
2023/08/06 06:42:25;;;;;;;3.45;1.35;;;;;;;17.27;100.00;99376.41;8360053;28;20041;-58
2023/08/06 06:46:32;;;;;;;5.97;1.80;;;;;;;17.43;100.00;99371.38;8352454;28;20043;-58
2023/08/06 06:50:32;;;;;;;3.42;1.38;;;;;;;17.48;100.00;99373.50;8358399;28;20037;-58
2023/08/06 06:54:33;;;;;;;1.73;1.10;;;;;;;17.49;100.00;99380.63;8360252;28;20040;-58
2023/08/06 06:58:33;;;;;;;5.88;1.52;;;;;;;17.46;100.00;99381.03;8360462;28;20078;-58
2023/08/06 07:02:34;;;;;;;3.03;1.65;;;;;;;17.58;100.00;99373.88;8356973;28;20546;-58
2023/08/06 07:06:34;;;;;;;2.83;1.83;;;;;;;17.73;100.00;99392.78;8360744;28;20037;-58
2023/08/06 07:10:35;;;;;;;7.13;2.30;;;;;;;17.65;100.00;99380.16;8360320;28;20044;-58
2023/08/06 07:14:35;;;;;;;3.42;1.67;;;;;;;17.64;100.00;99383.97;8356838;28;20036;-58
2023/08/06 07:18:36;;;;;;;2.85;2.00;;;;;;;17.56;100.00;99387.75;8359722;28;20041;-59
2023/08/06 07:22:37;;;;;;;2.22;1.70;;;;;;;17.54;100.00;99392.59;8362202;28;20040;-59
2023/08/06 07:26:38;;;;;;;5.00;2.25;;;;;;;17.48;100.00;99389.88;8352569;28;20079;-59
2023/08/06 07:30:39;;;;;;;7.18;3.60;;;;;;;17.46;100.00;99387.38;8352852;28;20087;-59
2023/08/06 07:34:40;;;;;;;4.22;2.90;;;;;;;17.51;100.00;99395.75;8357966;28;20049;-58
2023/08/06 07:38:41;;;;;;;5.90;2.42;;;;;;;17.55;100.00;99396.16;8357738;28;20053;-58
2023/08/06 07:42:41;;;;;;;6.15;2.80;;;;;;;17.64;100.00;99405.84;8360656;28;20449;-59
2023/08/06 07:46:42;;;;;;;4.78;2.50;;;;;;;17.77;100.00;99404.94;8355819;28;20064;-59
2023/08/06 07:50:48;;;;;;;3.00;2.50;;;;;;;17.68;100.00;99395.31;8357441;28;20376;-58
2023/08/06 07:54:48;;;;;;;3.03;1.85;;;;;;;17.61;100.00;99403.53;8358612;28;20094;-58
2023/08/06 07:58:49;;;;;;;3.95;2.35;;;;;;;17.70;100.00;99409.59;8350294;28;20029;-59
2023/08/06 08:02:50;;;;;;;1.92;1.55;;;;;;;17.87;100.00;99406.19;8352909;28;20049;-59
2023/08/06 08:06:50;;;;;;;1.83;1.17;;;;;;;17.84;100.00;99406.63;8360650;28;20043;-59
2023/08/06 08:10:51;;;;;;;2.50;1.00;;;;;;;17.77;100.00;99416.72;8353628;28;20036;-58
2023/08/06 08:14:51;;;;;;;1.13;0.85;;;;;;;18.04;100.00;99412.88;8355871;28;20128;-59
2023/08/06 08:18:52;;;;;;;0.88;0.70;;;;;;;18.09;100.00;99425.91;8349071;28;20415;-59
2023/08/06 08:22:52;;;;;;;0.93;0.50;;;;;;;18.14;100.00;99428.84;8349154;28;20037;-58
2023/08/06 08:26:53;;;;;;;0.50;0.40;;;;;;;18.10;100.00;99436.66;8351155;28;20395;-58
2023/08/06 08:30:54;;;;;;;0.52;0.30;;;;;;;18.20;100.00;99433.47;8351102;28;20053;-59
2023/08/06 08:34:54;;;;;;;0.30;0.30;;;;;;;18.21;100.00;99441.44;8349370;28;20045;-58
2023/08/06 08:38:55;;;;;;;1.52;0.20;;;;;;;18.09;100.00;99442.31;8346073;28;20506;-59
2023/08/06 08:42:57;;;;;;;0.30;0.30;;;;;;;18.18;100.00;99447.38;8345906;28;20483;-59
2023/08/06 08:46:58;;;;;;;0.40;0.20;;;;;;;18.08;100.00;99451.59;8343319;28;20040;-58
2023/08/06 08:50:58;;;;;;;0.10;0.10;;;;;;;17.97;100.00;99455.84;8345616;28;20044;-59
2023/08/06 08:55:01;;;;;;;1.13;0.10;;;;;;;17.77;100.00;99468.69;8348118;28;20510;-58
2023/08/06 08:59:02;;;;;;;0.80;0.30;;;;;;;17.77;100.00;99465.94;8345458;28;20072;-59
2023/08/06 09:03:06;;;;;;;0.20;0.20;;;;;;;17.77;100.00;99459.63;8351058;28;20052;-60
2023/08/06 09:07:08;;;;;;;;;;;;;;;17.93;100.00;99468.22;8343602;28;20049;-60
2023/08/06 09:11:10;;;;;;;0.32;0.20;;;;;;;17.87;100.00;99460.88;8348528;28;19952;-60
2023/08/06 09:15:11;;;;;;;0.70;0.50;;;;;;;17.89;100.00;99475.19;8343437;28;20045;-60
2023/08/06 09:19:13;;;;;;;0.93;0.60;;;;;;;17.80;100.00;99486.53;8350513;28;20076;-60
2023/08/06 09:23:13;;;;;;;0.20;0.20;;;;;;;17.61;100.00;99496.47;8348532;28;20049;-60
2023/08/06 09:27:15;;;;;;;0.40;0.17;;;;;;;17.24;100.00;99514.28;8346607;28;20522;-60
2023/08/06 09:31:15;;;;;;;2.08;0.30;;;;;;;16.73;100.00;99521.25;8349958;28;20048;-60
2023/08/06 09:35:17;;;;;;;0.70;0.20;;;;;;;16.46;100.00;99537.69;8368724;28;20037;-60
2023/08/06 09:39:19;;;;;;;0.38;0.30;;;;;;;16.38;100.00;99541.41;8354046;28;20069;-60
2023/08/06 09:43:20;;;;;;;0.40;0.30;;;;;;;16.35;100.00;99554.63;8351282;28;20036;-61
2023/08/06 09:47:23;;;;;;;1.77;0.70;;;;;;;16.27;100.00;99573.88;8348282;28;20047;-60
2023/08/06 09:51:25;;;;;;;1.20;0.32;;;;;;;16.19;100.00;99587.69;8351700;28;20075;-60
2023/08/06 09:55:26;;;;;;;0.88;0.60;;;;;;;16.12;100.00;99594.94;8347336;28;20036;-60
2023/08/06 09:59:27;;;;;;;2.15;0.93;;;;;;;16.07;100.00;99601.00;8350352;28;20979;-60
2023/08/06 10:03:29;;;;;;;1.08;0.60;;;;;;;15.99;100.00;99614.78;8349715;28;20039;-60
2023/08/06 10:07:30;;;;;;;2.13;1.20;;;;;;;15.90;100.00;99612.38;8348626;28;20056;-60
2023/08/06 10:11:31;;;;;;;6.00;1.38;;;;;;;15.80;100.00;99626.38;8350695;28;20049;-58
2023/08/06 10:15:32;;;;;;;3.40;1.60;;;;;;;15.77;100.00;99642.25;8348978;28;20060;-58
2023/08/06 10:19:33;;;;;;;4.15;1.58;;;;;;;15.73;100.00;99636.34;8347781;28;20061;-58
2023/08/06 10:23:35;;;;;;;3.08;1.27;;;;;;;15.71;100.00;99644.72;8351779;28;20060;-58
2023/08/06 10:27:56;;;;;;;7.80;1.60;;;;;;;15.73;100.00;99659.00;8347931;28;20094;-58
2023/08/06 10:32:00;;;;;;;6.15;1.60;;;;;;;15.70;100.00;99659.38;8350001;28;20510;-58
2023/08/06 10:36:04;;;;;;;6.53;1.83;;;;;;;15.67;100.00;99657.03;8351970;28;20041;-59
2023/08/06 10:40:07;;;;;;;2.15;1.30;;;;;;;15.62;100.00;99661.41;8348629;28;20546;-58
2023/08/06 10:44:09;;;;;;;5.30;1.30;;;;;;;15.63;100.00;99669.38;8350235;28;20518;-59
2023/08/06 10:48:09;;;;;;;5.53;1.17;;;;;;;15.68;100.00;99674.25;8348300;28;20037;-59
2023/08/06 10:52:10;;;;;;;9.30;1.45;;;;;;;15.77;100.00;99685.88;8348378;28;20136;-59
2023/08/06 10:56:14;;;;;;;4.13;0.68;;;;;;;15.73;100.00;99697.16;8347807;28;20047;-59
2023/08/06 11:00:14;;;;;;;6.10;1.00;;;;;;;15.82;100.00;99688.88;8348217;28;20344;-59
2023/08/06 11:04:17;;;;;;;2.65;0.60;;;;;;;15.88;100.00;99688.91;8346528;28;20155;-58
2023/08/06 11:08:38;;;;;;;5.18;1.52;;;;;;;16.05;100.00;99694.94;8352462;28;20467;-59
2023/08/06 11:12:39;;;;;;;2.83;1.08;;;;;;;16.13;100.00;99697.56;8351987;28;20041;-59
2023/08/06 11:16:40;;;;;;;2.35;0.73;;;;;;;16.18;100.00;99692.31;8353010;28;20033;-59
2023/08/06 11:20:40;;;;;;;1.88;0.70;;;;;;;16.20;100.00;99690.25;8352168;28;20053;-59
2023/08/06 11:24:41;;;;;;;3.80;1.05;;;;;;;16.28;100.00;99701.03;8351468;28;20041;-59
2023/08/06 11:28:41;;;;;;;4.63;0.95;;;;;;;16.27;100.00;99700.19;8354023;28;20048;-59
2023/08/06 11:32:47;;;;;;;4.15;1.02;;;;;;;16.24;100.00;99721.53;8351221;28;20033;-59
2023/08/06 11:36:47;;;;;;;2.03;0.77;;;;;;;16.28;100.00;99722.88;8353416;28;20407;-58
2023/08/06 11:40:48;;;;;;;2.42;1.15;;;;;;;16.32;100.00;99713.25;8374252;28;20145;-61
2023/08/06 11:44:48;;;;;;;2.38;0.70;;;;;;;16.44;100.00;99719.88;8350734;28;20045;-60
2023/08/06 11:48:54;;;;;;;3.35;1.08;;;;;;;16.40;100.00;99711.19;8353101;28;20085;-60
2023/08/06 11:52:57;;;;;;;5.53;0.90;;;;;;;16.51;100.00;99718.03;8347475;28;20404;-60
2023/08/06 11:56:58;;;;;;;4.80;0.80;;;;;;;16.65;100.00;99725.31;8349357;28;20041;-60
2023/08/06 12:00:58;;;;;;;3.60;1.00;;;;;;;16.65;100.00;99730.75;8352163;28;20056;-60
2023/08/06 12:05:02;;;;;;;4.80;1.50;;;;;;;16.78;100.00;99709.00;8355499;28;20033;-60
2023/08/06 12:09:02;;;;;;;11.30;1.60;;;;;;;16.79;100.00;99727.06;8350689;28;20037;-60
2023/08/06 12:13:03;;;;;;;2.33;0.70;;;;;;;16.87;100.00;99718.72;8349265;28;20155;-60
2023/08/06 12:17:03;;;;;;;3.58;1.30;;;;;;;16.99;100.00;99722.59;8344253;28;20049;-60
2023/08/06 12:21:03;;;;;;;2.63;0.60;;;;;;;17.28;100.00;99733.25;8344730;28;20636;-60
2023/08/06 12:25:08;;;;;;;4.43;0.50;;;;;;;17.44;100.00;99727.47;8343191;28;20043;-60
2023/08/06 12:29:08;;;;;;;0.98;0.50;;;;;;;17.54;100.00;99722.47;8347166;27;20041;-60
2023/08/06 12:33:09;;;;;;;0.63;0.57;;;;;;;17.58;100.00;99734.69;8348287;28;20055;-59
2023/08/06 12:37:09;;;;;;;1.95;0.50;;;;;;;17.58;100.00;99737.41;8342082;28;20040;-60
2023/08/06 12:41:10;;;;;;;2.45;0.63;;;;;;;17.57;100.00;99739.28;8342068;28;20394;-59
2023/08/06 12:45:10;;;;;;;1.65;0.60;;;;;;;17.59;100.00;99737.22;8346453;28;20064;-59
2023/08/06 12:49:11;;;;;;;3.00;0.65;;;;;;;17.60;100.00;99754.47;8354969;28;20177;-59
2023/08/06 12:53:11;;;;;;;0.55;0.40;;;;;;;17.58;100.00;99745.63;8362916;28;20506;-59
2023/08/06 12:57:12;;;;;;;0.80;0.60;;;;;;;17.66;100.00;99761.84;8364159;28;20045;-59
2023/08/06 13:01:12;;;;;;;2.20;0.80;;;;;;;17.67;100.00;99766.25;8363746;28;20127;-59
2023/08/06 13:05:13;;;;;;;2.67;0.50;;;;;;;17.59;100.00;99759.06;8362045;28;20050;-60
2023/08/06 13:09:15;;;;;;;2.33;0.90;;;;;;;17.66;100.00;99775.53;8357058;28;20041;-59
2023/08/06 13:13:16;;;;;;;5.35;1.00;;;;;;;17.58;100.00;99782.00;8345416;28;20037;-60
2023/08/06 13:17:16;;;;;;;2.08;1.02;;;;;;;17.56;100.00;99785.97;8347363;28;20073;-59
2023/08/06 13:21:16;;;;;;;8.63;1.80;;;;;;;17.68;100.00;99783.50;8344461;28;20360;-60
2023/08/06 13:25:17;;;;;;;2.80;1.33;;;;;;;17.88;100.00;99790.75;8342424;28;20249;-59
2023/08/06 13:29:18;;;;;;;5.30;1.00;;;;;;;18.04;100.00;99782.16;8345337;28;20113;-60
2023/08/06 13:33:18;;;;;;;3.92;0.88;;;;;;;18.33;100.00;99791.91;8349638;28;20410;-60
2023/08/06 13:37:18;;;;;;;3.75;0.63;;;;;;;18.40;100.00;99798.28;8342692;28;20052;-60
2023/08/06 13:41:19;;;;;;;3.80;0.63;;;;;;;18.39;99.82;99797.41;8347314;28;20043;-59
2023/08/06 13:45:20;;;;;;;2.53;0.60;;;;;;;18.36;100.00;99811.47;8341949;28;20052;-59
2023/08/06 13:49:20;;;;;;;4.13;0.68;;;;;;;18.29;100.00;99810.63;8342692;28;20077;-60
2023/08/06 13:53:20;;;;;;;3.17;0.60;;;;;;;18.23;100.00;99816.94;8345486;28;20061;-59
2023/08/06 13:57:21;;;;;;;3.22;0.40;;;;;;;18.23;99.65;99821.56;8344755;28;20037;-59
2023/08/06 14:01:22;;;;;;;2.38;0.60;;;;;;;18.17;99.78;99823.22;8347868;28;20406;-60
2023/08/06 14:05:22;;;;;;;2.28;0.40;;;;;;;18.19;100.00;99821.13;8345823;28;20033;-60
2023/08/06 14:09:23;;;;;;;5.20;0.60;;;;;;;18.13;100.00;99835.66;8345763;28;20043;-60
2023/08/06 14:13:23;;;;;;;6.53;0.80;;;;;;;18.19;100.00;99832.09;8345462;28;20037;-60
2023/08/06 14:17:23;;;;;;;1.20;0.45;;;;;;;18.29;100.00;99832.53;8340521;28;20037;-59
2023/08/06 14:21:24;;;;;;;3.50;0.40;;;;;;;18.29;100.00;99839.88;8352035;28;20044;-60
2023/08/06 14:25:24;;;;;;;1.98;0.30;;;;;;;18.22;100.00;99837.16;8351190;28;20037;-59
2023/08/06 14:29:25;;;;;;;0.60;0.52;;;;;;;18.37;100.00;99843.31;8349975;28;20629;-60
2023/08/06 14:33:25;;;;;;;0.40;0.20;;;;;;;18.46;100.00;99850.28;8348478;28;20299;-60
2023/08/06 14:37:26;;;;;;;1.75;0.30;;;;;;;18.47;100.00;99857.44;8350194;28;20438;-59
2023/08/06 14:41:26;;;;;;;1.40;0.55;;;;;;;18.47;100.00;99862.06;8346991;28;20048;-60
2023/08/06 14:45:27;;;;;;;5.93;0.32;;;;;;;18.50;100.00;99867.13;8354684;28;20075;-60
2023/08/06 14:49:27;;;;;;;0.30;0.30;;;;;;;18.44;100.00;99863.34;8354624;28;20049;-60
2023/08/06 14:53:28;;;;;;;0.32;0.13;;;;;;;18.27;100.00;99861.97;8350229;28;20343;-60
2023/08/06 14:57:28;;;;;;;1.20;0.22;;;;;;;18.20;100.00;99861.13;8361936;28;20047;-60
2023/08/06 15:01:29;;;;;;;0.45;0.30;;;;;;;18.13;100.00;99873.94;8360424;28;20043;-61
2023/08/06 15:05:29;;;;;;;3.08;0.40;;;;;;;18.20;100.00;99872.06;8356892;28;20160;-61
2023/08/06 15:09:29;;;;;;;0.25;0.10;;;;;;;18.18;100.00;99878.81;8343416;28;20045;-61
2023/08/06 15:13:30;;;;;;;1.95;0.40;;;;;;;18.12;100.00;99885.94;8344260;28;20120;-60
2023/08/06 15:17:30;;;;;;;0.10;0.10;;;;;;;18.22;100.00;99889.13;8352098;28;20048;-60
2023/08/06 15:21:31;;;;;;;2.40;0.30;;;;;;;18.15;100.00;99896.47;8339308;28;20033;-59
2023/08/06 15:25:31;;;;;;;1.00;0.25;;;;;;;18.12;100.00;99902.38;8338063;28;20041;-60
2023/08/06 15:29:32;;;;;;;0.65;0.25;;;;;;;17.97;100.00;99904.41;8339512;28;20068;-60
2023/08/06 15:33:32;;;;;;;0.70;0.30;;;;;;;17.94;100.00;99896.59;8344513;28;20041;-60
2023/08/06 15:37:33;;;;;;;2.28;0.40;;;;;;;18.05;100.00;99906.94;8346078;28;20040;-59
2023/08/06 15:41:33;;;;;;;0.10;0.10;;;;;;;18.15;100.00;99912.91;8361672;28;20064;-59
2023/08/06 15:45:34;;;;;;;1.45;0.28;;;;;;;18.17;100.00;99926.38;8359530;28;20040;-59
2023/08/06 15:49:35;;;;;;;1.15;0.60;;;;;;;18.17;100.00;99916.25;8342695;28;20037;-60
2023/08/06 15:53:35;;;;;;;3.00;0.50;;;;;;;18.06;100.00;99936.00;8342335;28;20044;-60
2023/08/06 15:57:36;;;;;;;0.85;0.60;;;;;;;18.01;100.00;99935.75;8344621;28;20091;-59
2023/08/06 16:01:36;;;;;;;3.60;0.60;;;;;;;17.92;100.00;99947.06;8344768;28;20056;-61
2023/08/06 16:05:37;;;;;;;1.60;0.70;;;;;;;17.74;100.00;99944.84;8347462;28;20037;-61
2023/08/06 16:09:37;;;;;;;1.75;0.40;;;;;;;17.74;100.00;99958.53;8355281;28;20048;-61
2023/08/06 16:13:38;;;;;;;2.40;0.60;;;;;;;17.71;100.00;99956.19;8359957;28;20566;-61
2023/08/06 16:17:38;;;;;;;3.10;0.60;;;;;;;17.65;100.00;99950.69;8361583;28;20462;-61
2023/08/06 16:21:39;;;;;;;3.35;0.65;;;;;;;17.54;100.00;99958.38;8344972;28;20042;-62
2023/08/06 16:25:47;;;;;;;0.88;0.40;;;;;;;17.49;100.00;99962.75;8338130;28;20037;-61
2023/08/06 16:29:48;;;;;;;2.35;0.50;;;;;;;17.50;100.00;99967.16;8343906;28;20045;-61
2023/08/06 16:33:49;;;;;;;2.20;0.57;;;;;;;17.51;100.00;99968.88;8340705;28;20120;-61
2023/08/06 16:37:50;;;;;;;3.08;0.65;;;;;;;17.43;100.00;99975.34;8342972;28;20124;-62
2023/08/06 16:41:50;;;;;;;1.83;0.30;;;;;;;17.45;100.00;99986.06;8342802;28;20036;-61
2023/08/06 16:45:52;;;;;;;2.88;0.55;;;;;;;17.40;100.00;99993.97;8336221;28;20107;-61
2023/08/06 16:49:53;;;;;;;0.88;0.60;;;;;;;17.25;100.00;99993.19;8340533;28;20040;-61
2023/08/06 16:53:53;;;;;;;2.63;0.60;;;;;;;17.16;100.00;99991.63;8337843;28;20498;-61
2023/08/06 16:57:54;;;;;;;1.73;0.73;;;;;;;16.94;100.00;100004.47;8343441;28;20056;-61
2023/08/06 17:01:54;;;;;;;5.85;0.75;;;;;;;16.73;100.00;100009.88;8344276;28;20356;-61
2023/08/06 17:05:54;;;;;;;1.58;0.82;;;;;;;16.54;100.00;100001.47;8342519;28;20195;-61
2023/08/06 17:09:55;;;;;;;2.58;1.45;;;;;;;16.39;100.00;100006.06;8338192;28;20048;-61
2023/08/06 17:13:55;;;;;;;3.05;1.05;;;;;;;16.30;100.00;100027.16;8342810;28;20537;-61
2023/08/06 17:17:56;;;;;;;3.22;0.90;;;;;;;16.38;100.00;100039.84;8344132;28;20212;-61
2023/08/06 17:21:57;;;;;;;0.80;0.63;;;;;;;16.38;100.00;100048.03;8337934;28;20354;-61
2023/08/06 17:25:57;;;;;;;2.58;0.80;;;;;;;16.37;100.00;100063.53;8341305;28;20052;-61
2023/08/06 17:29:58;;;;;;;4.25;0.65;;;;;;;16.39;100.00;100061.47;8342299;28;20253;-61
2023/08/06 17:33:58;;;;;;;1.55;0.50;;;;;;;16.39;100.00;100068.81;8339453;28;20591;-61
2023/08/06 17:37:59;;;;;;;1.45;0.40;;;;;;;16.33;100.00;100070.41;8338061;28;20140;-61
2023/08/06 17:42:03;;;;;;;2.42;0.60;;;;;;;16.35;100.00;100068.34;8339198;28;20128;-61
2023/08/06 17:46:03;;;;;;;2.60;0.80;;;;;;;16.30;100.00;100081.72;8349471;28;20039;-61
2023/08/06 17:50:04;;;;;;;0.80;0.60;;;;;;;16.27;100.00;100086.69;8335717;28;20128;-61
2023/08/06 17:54:05;;;;;;;2.13;0.65;;;;;;;16.17;100.00;100089.72;8347663;28;20044;-61
2023/08/06 17:58:05;;;;;;;1.08;0.38;;;;;;;16.10;100.00;100096.09;8352424;28;20048;-61
2023/08/06 18:02:06;;;;;;;1.88;0.32;;;;;;;15.96;100.00;100111.38;8372975;28;20043;-61
2023/08/06 18:06:07;;;;;;;0.93;0.30;;;;;;;15.89;100.00;100115.03;8352348;28;20054;-61
2023/08/06 18:10:07;;;;;;;2.75;0.20;;;;;;;15.79;100.00;100118.00;8348680;28;20647;-61
2023/08/06 18:14:08;;;;;;;1.45;0.25;;;;;;;15.70;100.00;100121.81;8353294;28;20047;-61
2023/08/06 18:18:09;;;;;;;1.80;0.30;;;;;;;15.68;100.00;100130.19;8366729;28;20045;-61
2023/08/06 18:22:09;;;;;;;2.38;0.43;;;;;;;15.65;100.00;100136.00;8358116;28;20048;-61
2023/08/06 18:26:10;;;;;;;2.15;0.40;;;;;;;15.66;100.00;100126.81;8362518;28;20043;-61
2023/08/06 18:30:11;;;;;;;5.20;0.60;;;;;;;15.68;100.00;100152.00;8361871;28;20044;-61
2023/08/06 18:34:11;;;;;;;3.65;0.65;;;;;;;15.65;100.00;100152.34;8359030;28;20049;-61
2023/08/06 18:38:11;;;;;;;2.60;0.55;;;;;;;15.66;100.00;100150.50;8359164;28;20033;-61
2023/08/06 18:42:12;;;;;;;3.97;0.70;;;;;;;15.66;100.00;100164.97;8363502;28;20475;-61
2023/08/06 18:46:12;;;;;;;1.65;0.47;;;;;;;15.63;100.00;100168.06;8366148;28;20547;-61